Time;durP1;ratioP1;P1;durP2;ratioP2;P2;SDS_P1;SDS_P2;PMS_P1;PMS_P2;Temp;Humidity;BMP_temperature;BMP_pressure;BME280_temperature;BME280_humidity;BME280_pressure;Samples;Min_cycle;Max_cycle;Signal;HPM_P1;HPM_P2
2021/07/02 00:02:13;;;;;;;16.35;13.40;;;;;;;16.19;75.23;100509.00;6172517;23;20017;-69
2021/07/02 00:04:38;;;;;;;18.05;13.02;;;;;;;16.17;75.96;100514.84;6181678;23;20321;-69
2021/07/02 00:07:04;;;;;;;17.75;14.07;;;;;;;16.13;76.03;100516.56;6174248;23;20021;-68
2021/07/02 00:09:29;;;;;;;16.90;14.43;;;;;;;16.09;75.65;100514.69;6184395;23;20005;-68
2021/07/02 00:11:55;;;;;;;20.30;15.30;;;;;;;16.03;76.40;100511.19;6148990;23;20043;-69
2021/07/02 00:14:20;;;;;;;26.05;15.50;;;;;;;16.01;76.29;100502.41;6182128;23;20005;-69
2021/07/02 00:16:46;;;;;;;23.13;15.05;;;;;;;15.97;76.30;100495.88;6147587;23;20005;-69
2021/07/02 00:19:11;;;;;;;19.50;14.07;;;;;;;15.96;76.19;100506.09;6182454;23;20329;-68
2021/07/02 00:21:36;;;;;;;18.65;14.75;;;;;;;15.93;76.60;100494.81;6173377;23;20048;-69
2021/07/02 00:24:03;;;;;;;20.08;15.40;;;;;;;15.88;76.89;100502.03;6182485;23;20766;-69
2021/07/02 00:26:28;;;;;;;18.58;14.27;;;;;;;15.84;76.94;100498.28;6181352;23;20008;-69
2021/07/02 00:28:53;;;;;;;18.55;14.32;;;;;;;15.85;76.55;100494.38;6185696;23;20348;-70
2021/07/02 00:31:19;;;;;;;14.52;12.40;;;;;;;15.86;76.46;100506.25;6187574;23;20041;-69
2021/07/02 00:33:44;;;;;;;20.40;14.02;;;;;;;15.85;76.13;100494.38;6185386;23;20025;-69
2021/07/02 00:36:10;;;;;;;21.00;14.98;;;;;;;15.84;76.54;100502.94;6182166;23;20024;-69
2021/07/02 00:38:35;;;;;;;18.48;14.00;;;;;;;15.82;76.52;100503.25;6183094;23;20096;-72
2021/07/02 00:41:00;;;;;;;17.40;14.27;;;;;;;15.81;76.18;100496.13;6177791;23;20013;-71
2021/07/02 00:43:26;;;;;;;27.80;15.95;;;;;;;15.77;76.36;100497.81;6175994;23;20012;-68
2021/07/02 00:45:51;;;;;;;20.02;15.60;;;;;;;15.67;76.48;100489.69;6177518;23;20008;-69
2021/07/02 00:48:17;;;;;;;18.88;14.20;;;;;;;15.62;76.50;100492.50;6175951;23;20072;-68
2021/07/02 00:50:44;;;;;;;14.88;13.35;;;;;;;15.56;76.76;100485.44;6182189;23;20012;-69
2021/07/02 00:53:12;;;;;;;20.45;15.45;;;;;;;15.48;76.52;100490.50;6183233;23;20009;-75
2021/07/02 00:55:38;;;;;;;26.90;14.43;;;;;;;15.41;76.47;100479.03;6154779;23;20015;-75
2021/07/02 00:58:04;;;;;;;27.75;15.18;;;;;;;15.32;76.65;100486.31;6183239;23;20236;-74
2021/07/02 01:00:30;;;;;;;18.45;14.20;;;;;;;15.30;76.52;100483.03;6192208;23;20379;-76
2021/07/02 01:02:55;;;;;;;17.80;14.55;;;;;;;15.22;76.93;100475.44;6177788;23;20005;-75
2021/07/02 01:05:21;;;;;;;14.75;13.27;;;;;;;15.18;77.40;100484.28;6191635;23;20001;-76
2021/07/02 01:07:47;;;;;;;15.35;13.02;;;;;;;15.12;77.05;100487.41;6182238;23;20075;-76
2021/07/02 01:10:16;;;;;;;22.98;14.68;;;;;;;15.05;77.31;100473.97;6186157;23;20005;-75
2021/07/02 01:12:42;;;;;;;20.45;13.82;;;;;;;15.02;77.76;100477.34;6163193;23;20012;-75
2021/07/02 01:15:27;;;;;;;14.15;12.75;;;;;;;15.00;78.11;100474.06;6184130;23;20009;-75
2021/07/02 01:17:53;;;;;;;21.38;14.18;;;;;;;14.96;77.40;100476.56;6189840;23;20001;-75
2021/07/02 01:20:19;;;;;;;11.65;10.80;;;;;;;14.92;77.68;100474.72;6187888;23;20004;-76
2021/07/02 01:22:45;;;;;;;12.75;11.45;;;;;;;14.92;76.98;100477.47;6180017;23;20009;-75
2021/07/02 01:25:11;;;;;;;10.52;9.52;;;;;;;14.92;76.88;100472.78;6180820;23;19997;-75
2021/07/02 01:27:37;;;;;;;12.55;11.02;;;;;;;14.90;76.89;100469.50;6185819;23;20028;-75
2021/07/02 01:30:05;;;;;;;10.60;9.80;;;;;;;14.93;76.88;100468.09;6185688;23;20040;-73
2021/07/02 01:32:31;;;;;;;11.23;10.13;;;;;;;14.95;77.27;100476.88;6189753;23;20001;-77
2021/07/02 01:34:56;;;;;;;10.35;9.45;;;;;;;15.00;76.58;100474.06;6189852;23;20012;-75
2021/07/02 01:37:22;;;;;;;11.32;10.32;;;;;;;15.05;76.52;100473.97;6185930;23;20005;-76
2021/07/02 01:39:47;;;;;;;14.02;12.50;;;;;;;15.08;77.14;100462.38;6188602;23;20076;-76
2021/07/02 01:42:12;;;;;;;10.77;9.65;;;;;;;15.21;76.74;100465.53;6188233;23;20008;-74
2021/07/02 01:44:39;;;;;;;13.70;11.50;;;;;;;15.28;77.14;100457.72;6193868;23;20056;-75
2021/07/02 01:47:05;;;;;;;12.07;10.68;;;;;;;15.35;76.91;100458.19;6200430;23;20777;-76
2021/07/02 01:49:31;;;;;;;13.07;11.60;;;;;;;15.39;76.47;100453.72;6206455;23;20009;-76
2021/07/02 01:51:56;;;;;;;13.18;9.65;;;;;;;15.47;76.18;100453.03;6188321;23;20119;-76
2021/07/02 01:54:22;;;;;;;10.35;9.35;;;;;;;15.52;76.61;100458.47;6183938;23;20076;-75
2021/07/02 01:56:49;;;;;;;12.70;10.60;;;;;;;15.61;75.87;100460.53;6187412;23;20005;-75
2021/07/02 01:59:15;;;;;;;11.23;10.15;;;;;;;15.66;75.95;100463.22;6186898;23;20428;-76
2021/07/02 02:01:42;;;;;;;11.55;10.50;;;;;;;15.71;76.14;100458.47;6190695;23;20424;-75
2021/07/02 02:04:08;;;;;;;14.57;10.50;;;;;;;15.76;76.18;100457.56;6189935;23;20013;-75
2021/07/02 02:06:33;;;;;;;12.40;10.45;;;;;;;15.81;75.75;100454.75;6188094;23;20009;-75
2021/07/02 02:08:59;;;;;;;9.55;8.77;;;;;;;15.88;75.73;100451.59;6182515;23;20005;-75
2021/07/02 02:11:24;;;;;;;13.85;11.93;;;;;;;15.93;75.19;100456.22;6180339;23;20009;-77
2021/07/02 02:13:49;;;;;;;11.82;10.63;;;;;;;15.93;75.16;100445.19;6189629;23;20064;-76
2021/07/02 02:16:15;;;;;;;9.13;8.38;;;;;;;15.97;75.39;100448.97;6185954;23;20087;-75
2021/07/02 02:18:40;;;;;;;10.85;9.90;;;;;;;16.00;75.01;100445.63;6186765;23;20023;-75
2021/07/02 02:21:06;;;;;;;11.13;10.10;;;;;;;16.04;74.97;100446.66;6187464;23;20009;-75
2021/07/02 02:23:31;;;;;;;12.80;11.68;;;;;;;16.04;74.60;100441.13;6188879;23;20001;-75
2021/07/02 02:25:57;;;;;;;11.18;9.88;;;;;;;16.07;74.35;100440.53;6185426;23;20069;-76
2021/07/02 02:28:22;;;;;;;9.63;8.77;;;;;;;16.12;74.32;100434.09;6166029;23;20067;-76
2021/07/02 02:30:47;;;;;;;7.18;6.78;;;;;;;16.16;74.47;100437.88;6192282;23;20039;-77
2021/07/02 02:33:15;;;;;;;7.40;6.68;;;;;;;16.20;74.23;100431.47;6167090;23;20001;-77
2021/07/02 02:35:41;;;;;;;7.85;7.40;;;;;;;16.23;73.99;100436.38;6167299;23;20059;-77
2021/07/02 02:38:07;;;;;;;7.47;6.97;;;;;;;16.27;73.94;100435.78;6162010;23;20048;-77
2021/07/02 02:40:32;;;;;;;8.70;7.90;;;;;;;16.33;73.89;100442.84;6192901;23;20005;-77
2021/07/02 02:42:58;;;;;;;15.55;10.90;;;;;;;16.33;73.19;100442.84;6185873;23;20011;-76
2021/07/02 02:45:23;;;;;;;8.20;7.53;;;;;;;16.34;73.42;100441.69;6194094;23;20072;-77
2021/07/02 02:47:49;;;;;;;9.88;9.20;;;;;;;16.34;73.33;100438.94;6107607;23;20009;-76
2021/07/02 02:50:14;;;;;;;9.02;8.10;;;;;;;16.34;72.91;100438.94;6170387;23;20016;-75
2021/07/02 02:52:40;;;;;;;7.15;6.57;;;;;;;16.36;73.29;100431.19;6160203;23;20032;-77
2021/07/02 02:55:06;;;;;;;8.40;7.70;;;;;;;16.39;72.71;100430.56;6169607;23;20068;-76
2021/07/02 02:57:31;;;;;;;7.32;6.85;;;;;;;16.41;73.00;100433.84;6193978;23;20073;-76
2021/07/02 02:59:57;;;;;;;8.23;7.60;;;;;;;16.42;72.89;100418.91;6195775;23;20005;-77
2021/07/02 03:02:22;;;;;;;8.88;8.25;;;;;;;16.43;72.37;100426.09;6197574;23;20009;-79
2021/07/02 03:04:48;;;;;;;10.40;9.43;;;;;;;16.40;72.25;100429.47;6170391;23;20031;-77
2021/07/02 03:07:13;;;;;;;9.02;8.23;;;;;;;16.33;72.62;100424.34;6167546;23;20016;-77
2021/07/02 03:09:39;;;;;;;8.02;7.32;;;;;;;16.33;72.55;100423.53;6198895;23;20005;-76
2021/07/02 03:12:05;;;;;;;7.93;7.40;;;;;;;16.32;72.62;100424.63;6200861;23;20020;-75
2021/07/02 03:14:31;;;;;;;8.15;7.45;;;;;;;16.31;72.42;100411.94;6196589;23;20087;-76
2021/07/02 03:16:56;;;;;;;5.95;5.60;;;;;;;16.36;72.48;100414.63;6191918;23;20005;-76
2021/07/02 03:19:22;;;;;;;7.15;6.65;;;;;;;16.38;72.11;100413.22;6167027;23;20092;-77
2021/07/02 03:21:48;;;;;;;5.38;5.07;;;;;;;16.39;72.13;100414.81;6192391;23;20017;-76
2021/07/02 03:24:13;;;;;;;5.68;5.38;;;;;;;16.41;72.01;100411.75;6191311;23;20001;-77
2021/07/02 03:26:39;;;;;;;8.00;7.32;;;;;;;16.44;71.97;100413.94;6186312;23;20011;-76
2021/07/02 03:29:05;;;;;;;5.53;5.22;;;;;;;16.45;71.66;100412.78;6189638;23;20019;-75
2021/07/02 03:31:32;;;;;;;5.80;5.40;;;;;;;16.45;71.82;100418.31;6190975;23;20024;-75
2021/07/02 03:33:57;;;;;;;4.68;4.38;;;;;;;16.46;71.86;100419.16;6190368;23;20012;-75
2021/07/02 03:36:23;;;;;;;6.20;5.75;;;;;;;16.48;71.85;100412.16;6162044;23;20013;-75
2021/07/02 03:38:48;;;;;;;4.85;4.57;;;;;;;16.53;71.49;100414.03;6188942;23;20021;-75
2021/07/02 03:41:14;;;;;;;5.03;4.82;;;;;;;16.57;71.53;100409.50;6190283;23;20038;-75
2021/07/02 03:43:39;;;;;;;4.88;4.57;;;;;;;16.60;71.48;100413.63;6191596;23;20008;-77
2021/07/02 03:46:05;;;;;;;4.97;4.50;;;;;;;16.62;71.09;100416.88;6158349;23;20048;-75
2021/07/02 03:48:31;;;;;;;6.05;5.78;;;;;;;16.64;70.91;100409.13;6196377;23;20059;-76
2021/07/02 03:50:56;;;;;;;6.63;6.13;;;;;;;16.63;71.10;100416.59;6196814;23;20009;-76
2021/07/02 03:53:22;;;;;;;10.27;9.57;;;;;;;16.62;70.87;100416.88;6190267;23;20032;-75
2021/07/02 03:55:47;;;;;;;6.47;5.80;;;;;;;16.61;70.84;100418.03;6141044;23;20019;-76
2021/07/02 03:58:15;;;;;;;4.95;4.75;;;;;;;16.61;71.23;100426.31;6184998;23;20001;-76
2021/07/02 04:00:40;;;;;;;4.50;4.18;;;;;;;16.62;70.90;100426.00;6162793;23;20091;-75
2021/07/02 04:03:06;;;;;;;4.55;4.30;;;;;;;16.66;70.87;100431.69;6182025;23;20017;-75
2021/07/02 04:05:31;;;;;;;8.27;7.57;;;;;;;16.65;70.76;100432.84;6191332;23;20065;-76
2021/07/02 04:07:57;;;;;;;9.75;8.88;;;;;;;16.64;70.85;100442.25;6192848;23;20036;-76
2021/07/02 04:10:24;;;;;;;7.38;6.78;;;;;;;16.62;70.87;100436.19;6199756;23;20024;-75
2021/07/02 04:12:50;;;;;;;8.38;7.80;;;;;;;16.62;70.81;100441.72;6197088;23;20072;-76
2021/07/02 04:15:15;;;;;;;5.68;5.28;;;;;;;16.61;70.63;100437.34;6165026;23;20482;-76
2021/07/02 04:17:41;;;;;;;7.55;6.97;;;;;;;16.63;70.48;100446.13;6186446;23;20000;-77
2021/07/02 04:20:12;;;;;;;10.60;9.48;;;;;;;16.61;70.33;100453.91;6137247;23;20009;-77
2021/07/02 04:22:41;;;;;;;9.43;8.52;;;;;;;16.54;70.77;100460.66;6162922;23;20047;-76
2021/07/02 04:25:09;;;;;;;10.45;9.57;;;;;;;16.53;71.03;100466.47;6165751;23;20081;-75
2021/07/02 04:27:34;;;;;;;17.30;12.50;;;;;;;16.48;71.08;100467.38;6184506;23;20079;-75
2021/07/02 04:30:02;;;;;;;17.05;12.07;;;;;;;16.34;70.98;100463.78;6188567;23;20005;-75
2021/07/02 04:32:28;;;;;;;12.45;10.98;;;;;;;16.30;71.70;100465.53;6181999;23;20385;-75
2021/07/02 04:34:53;;;;;;;9.05;8.27;;;;;;;16.29;71.37;100461.94;6182032;23;20068;-74
2021/07/02 04:37:19;;;;;;;15.85;7.88;;;;;;;16.30;71.59;100460.00;6164228;23;20009;-74
2021/07/02 04:39:44;;;;;;;8.02;7.00;;;;;;;16.33;71.27;100464.91;6181888;23;20029;-74
2021/07/02 04:42:09;;;;;;;9.75;8.27;;;;;;;16.35;71.31;100469.00;6185269;23;20079;-74
2021/07/02 04:44:36;;;;;;;9.38;8.57;;;;;;;16.38;71.16;100467.56;6190329;23;20025;-74
2021/07/02 04:47:02;;;;;;;8.35;7.78;;;;;;;16.40;71.02;100460.63;6182181;23;20088;-74
2021/07/02 04:49:27;;;;;;;10.32;9.52;;;;;;;16.40;71.57;100459.81;6187780;23;20029;-74
2021/07/02 04:51:53;;;;;;;12.07;10.13;;;;;;;16.42;71.10;100463.06;6208107;23;20013;-74
2021/07/02 04:54:18;;;;;;;10.38;9.38;;;;;;;16.42;71.04;100460.31;6210860;23;20009;-74
2021/07/02 04:56:47;;;;;;;10.73;9.50;;;;;;;16.42;71.19;100457.56;6190631;23;20135;-74
2021/07/02 04:59:13;;;;;;;10.32;9.45;;;;;;;16.42;71.38;100457.56;6181188;23;20005;-74
2021/07/02 05:01:39;;;;;;;10.65;9.77;;;;;;;16.39;71.07;100456.22;6215051;23;20088;-76
2021/07/02 05:04:05;;;;;;;10.75;9.82;;;;;;;16.39;71.36;100460.94;6213515;23;20024;-74
2021/07/02 05:06:30;;;;;;;9.30;8.40;;;;;;;16.39;71.33;100456.22;6215266;23;20005;-76
2021/07/02 05:08:56;;;;;;;8.13;7.63;;;;;;;16.41;71.41;100455.91;6189465;23;20005;-75
2021/07/02 05:11:21;;;;;;;7.65;7.05;;;;;;;16.45;71.29;100456.94;6182065;23;20060;-75
2021/07/02 05:13:47;;;;;;;8.52;7.82;;;;;;;16.48;71.04;100467.38;6210815;23;20016;-76
2021/07/02 05:16:12;;;;;;;8.02;7.50;;;;;;;16.51;71.25;100461.25;6189261;23;20301;-76
2021/07/02 05:18:38;;;;;;;6.68;6.28;;;;;;;16.54;70.92;100455.13;6188972;23;20070;-76
2021/07/02 05:21:03;;;;;;;5.65;5.13;;;;;;;16.62;71.30;100458.28;6186072;23;20000;-76
2021/07/02 05:23:29;;;;;;;6.88;6.47;;;;;;;16.67;70.71;100458.19;6189725;23;20008;-76
2021/07/02 05:25:54;;;;;;;9.20;8.40;;;;;;;16.72;70.72;100461.69;6185325;23;20008;-76
2021/07/02 05:28:20;;;;;;;9.88;8.88;;;;;;;16.73;70.51;100468.84;6191618;23;20059;-76
2021/07/02 05:30:45;;;;;;;10.15;9.23;;;;;;;16.74;70.36;100464.94;6191569;23;20008;-77
2021/07/02 05:33:11;;;;;;;10.77;9.70;;;;;;;16.73;70.56;100468.00;6187695;23;20056;-76
2021/07/02 05:35:36;;;;;;;8.80;8.10;;;;;;;16.73;70.51;100466.09;6171713;23;20380;-75
2021/07/02 05:38:01;;;;;;;8.68;7.85;;;;;;;16.75;70.51;100460.25;6194241;23;20025;-77
2021/07/02 05:40:27;;;;;;;10.63;9.63;;;;;;;16.75;70.38;100465.78;6188884;23;20409;-75
2021/07/02 05:42:52;;;;;;;14.80;11.88;;;;;;;16.69;70.79;100453.16;6188112;23;20001;-76
2021/07/02 05:45:18;;;;;;;15.25;11.75;;;;;;;16.65;70.73;100465.97;6166534;23;20001;-75
2021/07/02 05:47:59;;;;;;;9.30;8.52;;;;;;;16.64;70.78;100469.84;6172543;23;20001;-75
2021/07/02 05:50:25;;;;;;;10.52;8.63;;;;;;;16.66;70.64;100467.59;6196062;23;20019;-75
2021/07/02 05:52:57;;;;;;;8.95;8.02;;;;;;;16.70;70.87;100469.44;6196963;23;20017;-75
2021/07/02 05:55:24;;;;;;;8.18;7.47;;;;;;;16.75;70.63;100472.09;6192773;23;20024;-76
2021/07/02 05:57:50;;;;;;;11.68;9.65;;;;;;;16.80;70.62;100473.94;6192933;23;20063;-76
2021/07/02 06:00:16;;;;;;;9.05;8.23;;;;;;;16.82;70.16;100477.22;6162947;23;20001;-76
2021/07/02 06:02:41;;;;;;;10.18;9.30;;;;;;;16.84;70.27;100480.50;6162317;23;20080;-79
2021/07/02 06:05:07;;;;;;;10.18;9.40;;;;;;;16.86;70.09;100480.19;6194428;23;20009;-80
2021/07/02 06:07:47;;;;;;;12.88;8.85;;;;;;;16.90;70.19;100462.72;6170527;23;20012;-77
2021/07/02 06:10:14;;;;;;;10.63;9.63;;;;;;;16.93;69.73;100478.66;6191293;23;20055;-75
2021/07/02 06:12:40;;;;;;;10.75;9.60;;;;;;;16.97;69.94;100472.53;6182371;23;20009;-77
2021/07/02 06:15:06;;;;;;;10.02;9.13;;;;;;;17.00;69.98;100471.94;6181508;23;20009;-74
2021/07/02 06:17:32;;;;;;;7.18;6.65;;;;;;;17.10;70.10;100466.19;6192082;23;20005;-75
2021/07/02 06:19:57;;;;;;;7.10;6.70;;;;;;;17.24;69.85;100466.16;6166895;23;20059;-76
2021/07/02 06:22:23;;;;;;;8.10;7.43;;;;;;;17.33;69.31;100469.00;6165868;23;20396;-76
2021/07/02 06:24:48;;;;;;;5.95;5.65;;;;;;;17.44;69.12;100475.94;6162374;23;20008;-77
2021/07/02 06:27:14;;;;;;;6.32;5.85;;;;;;;17.53;68.97;100465.78;6165101;23;20013;-76
2021/07/02 06:29:39;;;;;;;4.88;4.57;;;;;;;17.66;68.67;100455.00;6166269;23;20050;-77
2021/07/02 06:32:05;;;;;;;7.32;6.70;;;;;;;17.76;67.90;100460.28;6186750;23;20043;-77
2021/07/02 06:34:30;;;;;;;7.22;6.82;;;;;;;17.80;67.57;100461.28;6187657;23;20738;-76
2021/07/02 06:36:55;;;;;;;9.27;8.57;;;;;;;17.83;67.71;100457.91;6165215;23;20009;-76
2021/07/02 06:39:21;;;;;;;10.27;9.38;;;;;;;17.77;67.47;100456.38;6190868;23;20021;-75
2021/07/02 06:41:46;;;;;;;10.00;8.70;;;;;;;17.76;67.12;100454.75;6181465;23;20017;-75
2021/07/02 06:44:12;;;;;;;9.43;8.38;;;;;;;17.80;67.22;100455.75;6188941;23;20372;-75
2021/07/02 06:46:37;;;;;;;8.88;8.20;;;;;;;17.82;67.30;100459.03;6161857;23;20016;-75
2021/07/02 06:49:06;;;;;;;9.43;6.75;;;;;;;17.85;67.27;100452.84;6186663;23;20039;-75
2021/07/02 06:51:33;;;;;;;6.75;6.15;;;;;;;17.94;67.29;100467.59;6189397;23;20398;-75
2021/07/02 06:54:00;;;;;;;9.10;7.93;;;;;;;18.00;66.76;100465.50;6155634;23;20012;-75
2021/07/02 06:56:26;;;;;;;6.63;6.13;;;;;;;18.05;66.88;100462.63;6184947;23;20079;-75
2021/07/02 06:58:51;;;;;;;9.50;8.25;;;;;;;18.09;66.67;100454.50;6163552;23;20436;-75
2021/07/02 07:01:17;;;;;;;6.95;6.45;;;;;;;18.17;66.88;100453.75;6185122;23;20001;-78
2021/07/02 07:03:42;;;;;;;8.13;7.43;;;;;;;18.21;66.64;100459.44;6190938;23;20031;-78
2021/07/02 07:06:08;;;;;;;8.20;7.43;;;;;;;18.27;66.55;100467.31;6166209;23;20024;-77
2021/07/02 07:08:33;;;;;;;6.00;5.60;;;;;;;18.36;66.34;100472.09;6164389;23;20012;-77
2021/07/02 07:10:59;;;;;;;5.88;5.57;;;;;;;18.49;65.99;100472.00;6168461;23;20009;-77
2021/07/02 07:13:24;;;;;;;9.68;8.77;;;;;;;18.48;65.42;100475.06;6188110;23;20009;-77
2021/07/02 07:15:57;;;;;;;8.93;8.32;;;;;;;18.40;65.31;100481.38;6169681;23;20068;-77
2021/07/02 07:18:22;;;;;;;13.82;10.77;;;;;;;18.31;64.89;100487.69;6168594;23;20020;-76
2021/07/02 07:20:48;;;;;;;12.18;10.93;;;;;;;18.12;64.99;100487.06;6160824;23;20005;-76
2021/07/02 07:23:14;;;;;;;12.40;10.63;;;;;;;18.03;65.77;100491.75;6192799;23;20013;-77
2021/07/02 07:25:40;;;;;;;12.23;10.57;;;;;;;17.95;65.96;100493.31;6204397;23;20024;-76
2021/07/02 07:28:05;;;;;;;16.23;10.98;;;;;;;17.84;65.77;100492.69;6201874;23;20059;-76
2021/07/02 07:30:31;;;;;;;10.77;8.48;;;;;;;17.87;66.32;100503.16;6196123;23;20072;-75
2021/07/02 07:32:57;;;;;;;5.32;5.03;;;;;;;18.03;66.42;100497.28;6195481;23;20024;-76
2021/07/02 07:35:26;;;;;;;3.20;2.92;;;;;;;18.29;66.19;100494.69;6190886;23;20009;-76
2021/07/02 07:37:55;;;;;;;4.45;4.15;;;;;;;18.55;65.56;100494.81;6194992;23;20001;-77
2021/07/02 07:40:23;;;;;;;10.18;7.95;;;;;;;18.71;64.69;100499.97;6202601;23;20080;-77
2021/07/02 07:42:49;;;;;;;4.53;4.32;;;;;;;18.80;64.56;100506.34;6196367;23;20013;-75
2021/07/02 07:45:15;;;;;;;6.53;6.13;;;;;;;18.85;64.39;100506.19;6193884;23;20079;-75
2021/07/02 07:47:40;;;;;;;7.65;7.10;;;;;;;18.86;63.86;100507.84;6193094;23;20332;-76
2021/07/02 07:50:09;;;;;;;7.60;6.93;;;;;;;18.95;64.26;100508.72;6186200;23;20019;-69
2021/07/02 07:55:07;;;;;;;5.22;4.80;;;;;;;19.31;63.42;100507.66;6192753;23;20603;-73
2021/07/02 07:57:32;;;;;;;4.18;3.97;;;;;;;19.48;62.99;100506.88;6182586;23;20005;-73
2021/07/02 07:59:58;;;;;;;5.68;5.38;;;;;;;19.63;62.82;100513.09;6183138;23;20013;-73
2021/07/02 08:02:23;;;;;;;2.67;2.58;;;;;;;19.88;62.77;100508.72;6188874;23;20051;-73
2021/07/02 08:04:49;;;;;;;3.28;3.08;;;;;;;20.12;62.52;100496.28;6183831;23;20557;-74
2021/07/02 08:07:14;;;;;;;3.25;3.15;;;;;;;20.42;62.44;100493.63;6188924;23;20096;-74
2021/07/02 08:09:40;;;;;;;2.08;1.98;;;;;;;20.75;62.09;100496.66;6186375;23;20009;-73
2021/07/02 08:12:06;;;;;;;1.48;1.48;;;;;;;21.04;61.49;100495.84;6185866;23;20041;-74
2021/07/02 08:14:31;;;;;;;2.47;1.85;;;;;;;21.28;60.93;100511.91;6182646;23;20001;-72
2021/07/02 08:16:56;;;;;;;1.52;1.52;;;;;;;21.49;60.83;100499.16;6187206;23;20013;-74
2021/07/02 08:19:22;;;;;;;2.33;2.15;;;;;;;21.74;60.02;100506.53;6187380;23;20063;-72
2021/07/02 08:21:52;;;;;;;2.13;2.03;;;;;;;21.80;59.79;100496.03;6179220;23;20072;-73
2021/07/02 08:24:18;;;;;;;2.40;2.20;;;;;;;21.97;59.57;100506.19;6188337;23;20009;-72
2021/07/02 08:26:43;;;;;;;6.32;6.00;;;;;;;21.93;57.59;100502.44;6178136;23;20009;-74
2021/07/02 08:32:10;;;;;;;6.00;5.45;;;;;;;21.59;56.63;100496.00;6187764;23;20015;-72
2021/07/02 08:34:35;;;;;;;4.88;4.68;;;;;;;21.63;57.22;100499.75;6187181;23;20029;-73
2021/07/02 08:37:05;;;;;;;5.85;5.53;;;;;;;21.78;57.02;100492.75;6188307;23;20076;-73
2021/07/02 08:39:30;;;;;;;6.07;5.68;;;;;;;21.89;56.27;100485.63;6212920;23;20028;-73
2021/07/02 08:41:56;;;;;;;4.38;4.18;;;;;;;22.06;56.39;100487.41;6179397;23;20009;-73
2021/07/02 08:44:22;;;;;;;4.35;4.00;;;;;;;22.30;56.27;100480.31;6191157;23;19997;-73
2021/07/02 08:46:49;;;;;;;4.80;4.60;;;;;;;22.61;56.01;100473.44;6164304;23;20039;-73
2021/07/02 08:49:17;;;;;;;3.03;2.92;;;;;;;22.96;55.85;100484.13;6185582;23;20016;-74
2021/07/02 08:51:43;;;;;;;5.38;5.18;;;;;;;23.17;53.36;100479.28;6184221;23;20017;-73
2021/07/02 08:54:14;;;;;;;5.03;4.75;;;;;;;23.25;53.47;100482.28;6212892;23;20008;-73
2021/07/02 08:56:56;;;;;;;3.40;3.30;;;;;;;23.44;53.52;100481.66;6196860;23;20035;-72
2021/07/02 08:59:23;;;;;;;3.25;2.30;;;;;;;23.72;53.82;100487.28;6187298;23;20013;-71
2021/07/02 09:01:48;;;;;;;2.80;2.70;;;;;;;23.99;53.39;100482.06;6179222;23;20084;-73
2021/07/02 09:04:17;;;;;;;3.67;3.55;;;;;;;24.26;52.80;100488.81;6178902;23;20005;-73
2021/07/02 09:06:43;;;;;;;3.35;3.15;;;;;;;24.47;52.36;100494.16;6186611;23;20001;-74
2021/07/02 09:09:09;;;;;;;2.50;2.40;;;;;;;24.71;52.10;100503.59;6185363;23;20016;-72
2021/07/02 09:11:39;;;;;;;4.78;4.38;;;;;;;24.84;51.01;100490.34;6154101;23;20005;-73
2021/07/02 09:14:07;;;;;;;3.08;2.97;;;;;;;24.90;51.02;100477.69;6186790;23;20451;-73
2021/07/02 09:16:37;;;;;;;2.47;2.33;;;;;;;25.21;50.69;100492.81;6181614;23;20102;-72
2021/07/02 09:19:29;;;;;;;2.35;2.25;;;;;;;25.44;50.07;100512.56;6179848;23;20386;-71
2021/07/02 09:22:15;;;;;;;3.80;3.60;;;;;;;25.40;49.38;100512.44;6185661;23;20012;-73
2021/07/02 09:24:46;;;;;;;;;;;;;;;25.24;46.63;100509.66;6185132;23;20020;-78
2021/07/02 09:27:36;;;;;;;3.85;3.70;;;;;;;24.69;47.68;100508.72;6218156;23;19904;-78
2021/07/02 09:30:14;;;;;;;3.40;3.30;;;;;;;24.42;48.24;100497.22;6179097;23;20013;-73
2021/07/02 09:32:50;;;;;;;3.95;3.75;;;;;;;24.40;48.40;100505.16;6194993;23;20028;-74
2021/07/02 09:35:17;;;;;;;4.68;4.38;;;;;;;24.62;47.99;100516.91;6192483;23;20054;-75
2021/07/02 09:37:52;;;;;;;2.67;2.58;;;;;;;24.75;48.09;100515.69;6194666;23;20320;-76
2021/07/02 09:40:29;;;;;;;2.20;2.10;;;;;;;24.95;48.93;100507.38;6185855;23;20017;-75
2021/07/02 09:43:25;;;;;;;2.08;1.98;;;;;;;25.22;48.45;100517.63;6187305;23;20043;-76
2021/07/02 09:45:53;;;;;;;1.70;1.60;;;;;;;25.13;47.88;100513.38;6193265;23;20005;-77
2021/07/02 09:48:24;;;;;;;2.13;2.03;;;;;;;24.95;47.74;100516.56;6195976;23;20001;-75
2021/07/02 09:50:54;;;;;;;2.45;2.35;;;;;;;25.00;47.84;100509.88;6199798;23;20017;-76
2021/07/02 09:53:25;;;;;;;3.33;3.22;;;;;;;25.06;47.15;100516.84;6174411;23;20032;-76
2021/07/02 09:55:53;;;;;;;3.10;3.00;;;;;;;25.16;47.70;100513.47;6204011;23;20015;-77
2021/07/02 09:58:29;;;;;;;2.30;2.20;;;;;;;25.48;47.95;100513.44;6202940;23;20013;-77
2021/07/02 10:00:56;;;;;;;2.60;2.50;;;;;;;25.67;47.22;100509.84;6188159;23;20039;-76
2021/07/02 10:03:25;;;;;;;1.90;1.80;;;;;;;25.88;47.10;100509.50;6189139;23;20004;-77
2021/07/02 10:06:00;;;;;;;5.00;4.70;;;;;;;26.07;45.29;100499.50;6189435;23;20339;-79
2021/07/02 10:08:31;;;;;;;4.15;3.85;;;;;;;25.84;44.69;100502.19;6194625;23;20001;-76
2021/07/02 10:10:59;;;;;;;3.10;2.85;;;;;;;25.56;45.25;100495.63;6185932;23;20005;-77
2021/07/02 10:13:27;;;;;;;3.42;3.20;;;;;;;25.40;45.47;100506.06;6167851;23;20009;-77
2021/07/02 10:15:53;;;;;;;3.38;3.28;;;;;;;25.58;45.21;100510.06;6187638;23;20012;-76
2021/07/02 10:18:21;;;;;;;3.05;2.90;;;;;;;26.21;45.62;100499.78;6190804;23;20040;-76
2021/07/02 10:20:47;;;;;;;1.90;1.80;;;;;;;26.79;45.53;100498.00;6159141;23;20031;-75
2021/07/02 10:23:25;;;;;;;1.27;1.27;;;;;;;27.62;45.29;100502.88;6160973;23;20424;-77
2021/07/02 10:25:54;;;;;;;1.73;1.67;;;;;;;28.54;44.45;100495.13;6162046;23;20289;-76
2021/07/02 10:28:22;;;;;;;1.73;1.63;;;;;;;29.36;43.82;100505.44;6165264;23;20005;-77
2021/07/02 10:30:48;;;;;;;2.40;2.30;;;;;;;30.04;43.03;100502.97;6192372;23;20009;-76
2021/07/02 10:33:14;;;;;;;3.00;2.80;;;;;;;30.54;41.02;100512.78;6188879;23;20011;-75
2021/07/02 10:35:44;;;;;;;4.30;4.10;;;;;;;30.91;39.52;100501.06;6138955;23;20063;-76
2021/07/02 10:38:11;;;;;;;2.63;2.53;;;;;;;31.40;39.78;100490.16;6167108;23;20439;-76
2021/07/02 10:40:43;;;;;;;1.80;1.70;;;;;;;32.24;39.56;100504.78;6205730;23;20044;-76
2021/07/02 10:43:18;;;;;;;2.47;2.38;;;;;;;32.92;38.09;100498.63;6186143;23;20005;-76
2021/07/02 10:46:15;;;;;;;1.10;1.10;;;;;;;33.92;38.25;100491.09;6188089;23;20009;-75
2021/07/02 10:48:52;;;;;;;2.00;1.90;;;;;;;34.77;35.67;100497.94;6212832;23;20096;-77
2021/07/02 10:51:47;;;;;;;3.70;3.50;;;;;;;35.19;32.16;100495.56;6193087;23;20028;-78
2021/07/02 10:54:15;;;;;;;2.30;2.17;;;;;;;35.38;32.61;100494.06;6184851;23;20013;-78
2021/07/02 10:56:44;;;;;;;2.15;1.45;;;;;;;36.04;32.70;100490.66;6189276;23;20012;-78
2021/07/02 10:59:14;;;;;;;1.90;1.90;;;;;;;36.59;30.93;100497.50;6194239;23;20001;-78
2021/07/02 11:02:04;;;;;;;1.70;1.60;;;;;;;37.33;30.86;100504.59;6187853;23;20008;-78
2021/07/02 11:04:33;;;;;;;2.45;2.30;;;;;;;37.58;28.09;100493.75;6193825;23;20005;-77
2021/07/02 11:06:59;;;;;;;1.48;1.38;;;;;;;37.75;29.67;100483.06;6190696;23;20635;-78
2021/07/02 11:10:00;;;;;;;3.22;0.90;;;;;;;37.95;29.98;100495.06;6192067;23;20481;-77
2021/07/02 11:12:45;;;;;;;2.28;2.17;;;;;;;38.32;27.03;100481.31;6139632;23;20033;-79
2021/07/02 11:15:15;;;;;;;1.20;1.20;;;;;;;39.12;27.21;100478.66;6211632;23;20009;-76
2021/07/02 11:18:08;;;;;;;1.17;1.17;;;;;;;39.93;27.20;100481.78;6184613;23;20012;-76
2021/07/02 11:20:34;;;;;;;5.45;1.67;;;;;;;39.72;24.63;100469.91;6189243;23;20009;-79
2021/07/02 11:22:59;;;;;;;1.40;1.40;;;;;;;39.09;24.83;100466.88;6190772;23;20017;-79
2021/07/02 11:25:33;;;;;;;1.48;1.38;;;;;;;38.38;24.87;100470.13;6223638;23;20040;-77
2021/07/02 11:28:01;;;;;;;0.90;0.90;;;;;;;37.46;25.17;100472.50;6201126;23;20020;-76
2021/07/02 11:30:34;;;;;;;1.20;1.20;;;;;;;36.44;25.82;100471.44;6191315;23;20005;-79